createdAt,value
2023-04-14T00:00:11.666Z,0.20
2023-04-14T00:02:43.866Z,0.20
2023-04-14T00:05:14.510Z,0.20
2023-04-14T00:07:44.901Z,0.20
2023-04-14T00:10:15.630Z,0.20
2023-04-14T00:12:46.320Z,0.20
2023-04-14T00:15:16.806Z,0.20
2023-04-14T00:17:49.139Z,0.23
2023-04-14T00:20:20.495Z,0.20
2023-04-14T00:22:50.930Z,0.30
2023-04-14T00:25:21.347Z,0.20
2023-04-14T00:27:52.356Z,0.30
2023-04-14T00:30:22.768Z,0.30
2023-04-14T00:32:54.650Z,0.30
2023-04-14T00:35:25.222Z,0.37
2023-04-14T00:37:57.263Z,0.20
2023-04-14T00:40:27.716Z,0.30
2023-04-14T00:42:58.138Z,0.20
2023-04-14T00:45:29.153Z,0.20
2023-04-14T00:48:01.720Z,0.27
2023-04-14T00:50:37.358Z,0.30
2023-04-14T00:53:09.059Z,0.27
2023-04-14T00:55:39.521Z,0.30
2023-04-14T00:58:10.300Z,0.30
2023-04-14T01:00:41.699Z,0.20
2023-04-14T01:03:14.047Z,0.30
2023-04-14T01:05:44.600Z,0.30
2023-04-14T01:08:15.215Z,0.20
2023-04-14T01:10:51.783Z,0.30
2023-04-14T01:13:34.307Z,0.30
2023-04-14T01:16:09.170Z,0.30
2023-04-14T01:18:49.242Z,0.27
2023-04-14T01:21:23.615Z,0.30
2023-04-14T01:24:08.044Z,0.30
2023-04-14T01:26:39.084Z,0.30
2023-04-14T01:29:42.118Z,0.30
2023-04-14T01:32:21.263Z,0.30
2023-04-14T01:34:56.345Z,0.30
2023-04-14T01:37:32.633Z,0.20
2023-04-14T01:40:11.953Z,0.30
2023-04-14T01:42:47.313Z,0.30
2023-04-14T01:45:23.309Z,0.20
2023-04-14T01:47:55.924Z,0.30
2023-04-14T01:50:27.694Z,0.30
2023-04-14T01:52:58.361Z,0.30
2023-04-14T01:55:30.838Z,0.30
2023-04-14T01:58:04.699Z,0.20
2023-04-14T02:00:36.295Z,0.20
2023-04-14T02:03:09.081Z,0.30
2023-04-14T02:05:43.052Z,0.20
2023-04-14T02:08:16.979Z,0.20
2023-04-14T02:10:49.577Z,0.30
2023-04-14T02:13:22.165Z,0.20
2023-04-14T02:15:54.382Z,0.30
2023-04-14T02:18:26.809Z,0.30
2023-04-14T02:20:58.840Z,0.30
2023-04-14T02:23:29.207Z,0.27
2023-04-14T02:26:04.771Z,0.30
2023-04-14T02:28:37.695Z,0.30
2023-04-14T02:31:11.298Z,0.20
2023-04-14T02:33:43.798Z,0.30
2023-04-14T02:36:19.568Z,0.30
2023-04-14T02:38:54.416Z,0.30
2023-04-14T02:41:28.053Z,0.30
2023-04-14T02:44:07.089Z,0.30
2023-04-14T02:46:43.108Z,0.30
2023-04-14T02:49:17.298Z,0.30
2023-04-14T02:51:50.163Z,0.30
2023-04-14T02:54:22.983Z,0.30
2023-04-14T02:56:53.920Z,0.30
2023-04-14T02:59:25.290Z,0.20
2023-04-14T03:01:56.978Z,0.30
2023-04-14T03:04:30.221Z,0.30
2023-04-14T03:07:01.470Z,0.30
2023-04-14T03:09:33.914Z,0.30
2023-04-14T03:12:05.996Z,0.30
2023-04-14T03:14:37.514Z,0.30
2023-04-14T03:17:08.201Z,0.30
2023-04-14T03:19:42.432Z,0.30
2023-04-14T03:22:15.741Z,0.30
2023-04-14T03:24:48.564Z,0.30
2023-04-14T03:27:23.516Z,0.30
2023-04-14T03:29:56.151Z,0.30
2023-04-14T03:32:31.714Z,0.20
2023-04-14T03:35:05.595Z,0.40
2023-04-14T03:37:41.973Z,0.30
2023-04-14T03:40:14.453Z,0.30
2023-04-14T03:42:45.782Z,0.30
2023-04-14T03:45:18.242Z,0.20
2023-04-14T03:47:48.602Z,0.27
2023-04-14T03:50:23.816Z,0.30
2023-04-14T03:52:55.783Z,0.20
2023-04-14T03:55:28.540Z,0.30
2023-04-14T03:58:01.977Z,0.30
2023-04-14T04:00:33.380Z,0.30
2023-04-14T04:03:05.242Z,0.30
2023-04-14T04:05:40.012Z,0.30
2023-04-14T04:08:12.532Z,0.30
2023-04-14T04:10:45.556Z,0.30
2023-04-14T04:13:18.884Z,0.30
2023-04-14T04:15:51.834Z,0.30
2023-04-14T04:18:23.393Z,0.30
2023-04-14T04:20:57.742Z,0.20
2023-04-14T04:23:30.282Z,0.30
2023-04-14T04:26:01.055Z,0.30
2023-04-14T04:28:31.651Z,0.30
2023-04-14T04:31:03.301Z,0.30
2023-04-14T04:33:34.110Z,0.30
2023-04-14T04:36:07.861Z,0.30
2023-04-14T04:38:38.341Z,0.30
2023-04-14T04:41:08.902Z,0.30
2023-04-14T04:43:39.227Z,0.30
2023-04-14T04:46:39.455Z,0.30
2023-04-14T04:49:09.857Z,0.30
2023-04-14T04:51:42.237Z,0.30
2023-04-14T04:54:12.741Z,0.30
2023-04-14T04:56:43.252Z,0.30
2023-04-14T04:59:14.089Z,0.30
2023-04-14T05:01:44.837Z,0.23
2023-04-14T05:04:15.279Z,0.20
2023-04-14T05:06:47.410Z,0.30
2023-04-14T05:09:17.621Z,0.30
2023-04-14T05:11:47.942Z,0.30
2023-04-14T05:14:18.240Z,0.30
2023-04-14T05:16:48.837Z,0.30
2023-04-14T05:19:19.366Z,0.30
2023-04-14T05:21:51.385Z,0.30
2023-04-14T05:24:21.604Z,0.30
2023-04-14T05:27:12.314Z,0.30
2023-04-14T05:29:42.394Z,0.30
2023-04-14T05:32:15.145Z,0.30
2023-04-14T05:34:45.461Z,0.30
2023-04-14T05:37:17.780Z,0.30
2023-04-14T05:39:48.228Z,0.30
2023-04-14T05:42:18.744Z,0.30
2023-04-14T05:44:49.183Z,0.30
2023-04-14T05:47:19.978Z,0.30
2023-04-14T05:49:50.234Z,0.30
2023-04-14T05:52:22.602Z,0.30
2023-04-14T05:54:53.083Z,0.30
2023-04-14T05:57:23.619Z,0.30
2023-04-14T05:59:54.541Z,0.30
2023-04-14T06:02:25.946Z,0.30
2023-04-14T06:04:56.442Z,0.30
2023-04-14T06:07:28.654Z,0.30
2023-04-14T06:09:59.032Z,0.30
2023-04-14T06:12:29.386Z,0.30
2023-04-14T06:14:59.868Z,0.30
2023-04-14T06:17:30.426Z,0.30
2023-04-14T06:20:00.941Z,0.30
2023-04-14T06:22:33.274Z,0.30
2023-04-14T06:25:03.650Z,0.30
2023-04-14T06:27:33.950Z,0.37
2023-04-14T06:30:04.547Z,0.30
2023-04-14T06:32:34.944Z,0.40
2023-04-14T06:35:06.092Z,0.30
2023-04-14T06:37:38.014Z,0.30
2023-04-14T06:40:09.629Z,0.33
2023-04-14T06:42:39.851Z,0.30
2023-04-14T06:45:11.414Z,0.30
2023-04-14T06:47:41.989Z,0.30
2023-04-14T06:50:13.258Z,0.30
2023-04-14T06:52:45.070Z,0.30
2023-04-14T06:55:15.511Z,0.30
2023-04-14T06:57:46.040Z,0.30
2023-04-14T07:00:18.021Z,0.30
2023-04-14T07:02:48.634Z,0.40
2023-04-14T07:05:19.512Z,0.30
2023-04-14T07:07:51.731Z,0.40
2023-04-14T07:10:22.336Z,0.40
2023-04-14T07:12:52.778Z,0.40
2023-04-14T07:15:23.251Z,0.30
2023-04-14T07:17:53.852Z,0.30
2023-04-14T07:20:24.078Z,0.30
2023-04-14T07:22:56.316Z,0.30
2023-04-14T07:25:26.586Z,0.30
2023-04-14T07:28:03.026Z,0.30
2023-04-14T07:30:34.062Z,0.30
2023-04-14T07:33:04.740Z,0.40
2023-04-14T07:35:34.968Z,0.40
2023-04-14T07:38:07.330Z,0.40
2023-04-14T07:40:39.940Z,0.40
2023-04-14T07:43:10.601Z,0.33
2023-04-14T07:45:41.547Z,0.30
2023-04-14T07:48:11.953Z,0.30
2023-04-14T07:50:42.339Z,0.40
2023-04-14T07:53:14.811Z,0.40
2023-04-14T07:55:45.106Z,0.40
2023-04-14T07:58:16.024Z,0.40
2023-04-14T08:00:46.818Z,0.30
2023-04-14T08:03:17.961Z,0.30
2023-04-14T08:05:48.713Z,0.40
2023-04-14T08:08:20.708Z,0.30
2023-04-14T08:10:50.988Z,0.30
2023-04-14T08:13:21.351Z,0.30
2023-04-14T08:15:51.802Z,0.33
2023-04-14T08:18:22.438Z,0.37
2023-04-14T08:20:52.957Z,0.30
2023-04-14T08:23:24.881Z,0.40
2023-04-14T08:25:55.079Z,0.30
2023-04-14T08:28:25.350Z,0.30
2023-04-14T08:30:55.610Z,0.40
2023-04-14T08:33:25.885Z,0.40
2023-04-14T08:35:58.922Z,0.33
2023-04-14T08:38:33.108Z,0.40
2023-04-14T08:41:06.485Z,0.37
2023-04-14T08:43:37.012Z,0.37
2023-04-14T08:46:08.183Z,0.40
2023-04-14T08:48:40.649Z,0.30
2023-04-14T08:51:16.840Z,0.30
2023-04-14T08:53:53.354Z,0.40
2023-04-14T08:56:26.090Z,0.33
2023-04-14T08:58:57.400Z,0.30
2023-04-14T09:01:28.280Z,0.30
2023-04-14T09:03:59.991Z,0.40
2023-04-14T09:06:30.963Z,0.40
2023-04-14T09:09:05.994Z,0.30
2023-04-14T09:11:37.421Z,0.40
2023-04-14T09:14:08.401Z,0.40
2023-04-14T09:16:39.037Z,0.33
2023-04-14T09:19:10.593Z,0.30
2023-04-14T09:21:51.795Z,0.40
2023-04-14T09:24:31.235Z,0.30
2023-04-14T09:27:04.150Z,0.30
2023-04-14T09:29:34.863Z,0.37
2023-04-14T09:32:06.605Z,0.30
2023-04-14T09:34:37.353Z,0.30
2023-04-14T09:37:09.180Z,0.30
2023-04-14T09:39:52.083Z,0.33
2023-04-14T09:42:22.420Z,0.40
2023-04-14T09:44:56.781Z,0.30
2023-04-14T09:47:27.437Z,0.40
2023-04-14T09:50:03.905Z,0.40
2023-04-14T09:52:40.844Z,0.40
2023-04-14T09:55:14.306Z,0.33
2023-04-14T09:57:47.949Z,0.40
2023-04-14T10:00:23.058Z,0.40
2023-04-14T10:02:56.737Z,0.40
2023-04-14T10:05:32.166Z,0.30
2023-04-14T10:08:06.446Z,0.33
2023-04-14T10:10:38.315Z,0.37
2023-04-14T10:13:09.178Z,0.40
2023-04-14T10:15:39.963Z,0.40
2023-04-14T10:18:10.376Z,0.30
2023-04-14T10:20:41.098Z,0.30
2023-04-14T10:23:11.964Z,0.30
2023-04-14T10:25:44.259Z,0.30
2023-04-14T10:28:15.107Z,0.30
2023-04-14T10:30:45.787Z,0.40
2023-04-14T10:33:16.376Z,0.37
2023-04-14T10:35:50.723Z,0.40
2023-04-14T10:38:21.574Z,0.40
2023-04-14T10:40:56.938Z,0.40
2023-04-14T10:43:30.960Z,0.40
2023-04-14T10:46:02.028Z,0.40
2023-04-14T10:48:36.101Z,0.40
2023-04-14T10:51:07.988Z,0.50
2023-04-14T10:53:47.390Z,0.40
2023-04-14T10:56:22.274Z,0.30
2023-04-14T10:58:57.991Z,0.40
2023-04-14T11:01:33.379Z,0.40
2023-04-14T11:04:20.227Z,0.37
2023-04-14T11:06:57.986Z,0.40
2023-04-14T11:09:34.783Z,0.40
2023-04-14T11:12:26.754Z,0.40
2023-04-14T11:14:59.009Z,0.30
2023-04-14T11:17:33.822Z,0.40
2023-04-14T11:20:16.157Z,0.40
2023-04-14T11:22:48.359Z,0.30
2023-04-14T11:25:22.296Z,0.40
2023-04-14T11:27:56.416Z,0.40
2023-04-14T11:30:27.805Z,0.40
2023-04-14T11:32:59.459Z,0.30
2023-04-14T11:35:30.785Z,0.40
2023-04-14T11:38:02.389Z,0.40
2023-04-14T11:40:32.672Z,0.40
2023-04-14T11:43:04.648Z,0.40
2023-04-14T11:45:34.923Z,0.40
2023-04-14T11:48:06.811Z,0.30
2023-04-14T11:50:39.490Z,0.40
2023-04-14T11:53:11.586Z,0.37
2023-04-14T11:55:45.812Z,0.30
2023-04-14T11:58:23.186Z,0.40
2023-04-14T12:00:56.020Z,0.40
2023-04-14T12:06:20.948Z,0.40
2023-04-14T12:08:55.163Z,0.30
2023-04-14T12:11:25.534Z,0.33
2023-04-14T12:13:57.780Z,0.33
2023-04-14T12:16:28.429Z,0.40
2023-04-14T12:18:59.358Z,0.40
2023-04-14T12:21:29.630Z,0.30
2023-04-14T12:23:59.983Z,0.30
2023-04-14T12:26:31.322Z,0.30
2023-04-14T12:29:04.102Z,0.40
2023-04-14T12:31:34.812Z,0.30
2023-04-14T12:34:07.195Z,0.30
2023-04-14T12:36:50.090Z,0.40
2023-04-14T12:39:22.796Z,0.40
2023-04-14T12:41:58.434Z,0.30
2023-04-14T12:44:31.220Z,0.33
2023-04-14T12:47:02.284Z,0.30
2023-04-14T12:49:36.990Z,0.40
2023-04-14T12:52:08.954Z,0.40
2023-04-14T12:54:49.924Z,0.40
2023-04-14T12:57:22.761Z,0.40
2023-04-14T12:59:54.814Z,0.40
2023-04-14T13:02:25.437Z,0.30
2023-04-14T13:04:56.112Z,0.37
2023-04-14T13:07:26.588Z,0.30
2023-04-14T13:09:56.920Z,0.30
2023-04-14T13:12:27.844Z,0.40
2023-04-14T13:14:59.969Z,0.30
2023-04-14T13:17:30.494Z,0.33
2023-04-14T13:20:01.137Z,0.30
2023-04-14T13:22:31.486Z,0.30
2023-04-14T13:25:02.173Z,0.30
2023-04-14T13:27:32.673Z,0.30
2023-04-14T13:30:04.777Z,0.40
2023-04-14T13:32:35.216Z,0.20
2023-04-14T13:35:05.847Z,0.30
2023-04-14T13:37:36.117Z,0.30
2023-04-14T13:40:06.937Z,0.30
2023-04-14T13:42:37.275Z,0.30
2023-04-14T13:45:10.848Z,0.20
2023-04-14T13:47:41.219Z,0.40
2023-04-14T13:50:12.641Z,0.30
2023-04-14T13:52:43.008Z,0.40
2023-04-14T13:55:13.931Z,0.30
2023-04-14T13:57:44.218Z,0.30
2023-04-14T14:00:17.350Z,0.30
2023-04-14T14:02:47.980Z,0.30
2023-04-14T14:05:18.691Z,0.30
2023-04-14T14:07:49.545Z,0.30
2023-04-14T14:10:19.794Z,0.30
2023-04-14T14:12:50.429Z,0.30
2023-04-14T14:15:22.927Z,0.30
2023-04-14T14:17:53.733Z,0.20
2023-04-14T14:20:24.246Z,0.27
2023-04-14T14:22:54.641Z,0.30
2023-04-14T14:25:25.351Z,0.30
2023-04-14T14:27:55.893Z,0.30
2023-04-14T14:30:28.098Z,0.30
2023-04-14T14:32:58.610Z,0.27
2023-04-14T14:35:29.054Z,0.30
2023-04-14T14:38:00.749Z,0.20
2023-04-14T14:40:32.193Z,0.30
2023-04-14T14:43:02.914Z,0.30
2023-04-14T14:45:35.840Z,0.20
2023-04-14T14:48:08.032Z,0.20
2023-04-14T14:50:38.922Z,0.30
2023-04-14T14:53:09.299Z,0.30
2023-04-14T14:55:40.294Z,0.20
2023-04-14T14:58:12.637Z,0.30
2023-04-14T15:00:44.787Z,0.30
2023-04-14T15:03:15.530Z,0.30
2023-04-14T15:05:45.872Z,0.20
2023-04-14T15:08:16.332Z,0.23
2023-04-14T15:10:46.611Z,0.30
2023-04-14T15:13:16.918Z,0.20
2023-04-14T15:15:49.130Z,0.20
2023-04-14T15:18:19.612Z,0.30
2023-04-14T15:20:50.516Z,0.30
2023-04-14T15:23:20.780Z,0.33
2023-04-14T15:25:51.557Z,0.30
2023-04-14T15:28:22.457Z,0.20
2023-04-14T15:30:54.351Z,0.30
2023-04-14T15:33:27.469Z,0.30
2023-04-14T15:35:57.788Z,0.30
2023-04-14T15:38:28.782Z,0.30
2023-04-14T15:41:08.159Z,0.30
2023-04-14T15:43:38.671Z,0.20
2023-04-14T15:46:12.070Z,0.20
2023-04-14T15:48:43.659Z,0.20
2023-04-14T15:51:14.547Z,0.20
2023-04-14T15:53:45.359Z,0.20
2023-04-14T15:56:16.953Z,0.20
2023-04-14T15:58:47.234Z,0.30
2023-04-14T16:01:19.314Z,0.30
2023-04-14T16:03:52.443Z,0.27
2023-04-14T16:06:24.152Z,0.20
2023-04-14T16:08:54.375Z,0.20
2023-04-14T16:11:25.172Z,0.20
2023-04-14T16:13:56.112Z,0.20
2023-04-14T16:16:28.624Z,0.20
2023-04-14T16:18:59.037Z,0.23
2023-04-14T16:21:29.747Z,0.17
2023-04-14T16:24:00.702Z,0.30
2023-04-14T16:26:31.273Z,0.20
2023-04-14T16:29:02.141Z,0.20
2023-04-14T16:31:34.411Z,0.30
2023-04-14T16:34:05.296Z,0.30
2023-04-14T16:36:37.093Z,0.20
2023-04-14T16:39:07.870Z,0.20
2023-04-14T16:41:38.166Z,0.20
2023-04-14T16:44:08.593Z,0.20
2023-04-14T16:46:40.968Z,0.20
2023-04-14T16:49:11.667Z,0.20
2023-04-14T16:51:42.102Z,0.20
2023-04-14T16:54:13.270Z,0.20
2023-04-14T16:56:43.566Z,0.20
2023-04-14T16:59:13.899Z,0.17
2023-04-14T17:01:45.874Z,0.10
2023-04-14T17:04:16.351Z,0.10
2023-04-14T17:06:48.060Z,0.20
2023-04-14T17:09:18.371Z,0.20
2023-04-14T17:11:49.445Z,0.20
2023-04-14T17:14:19.769Z,0.20
2023-04-14T17:16:51.946Z,0.20
2023-04-14T17:19:22.333Z,0.20
2023-04-14T17:21:52.616Z,0.10
2023-04-14T17:24:23.852Z,0.10
2023-04-14T17:26:54.336Z,0.20
2023-04-14T17:29:24.998Z,0.10
2023-04-14T17:31:57.251Z,0.10
2023-04-14T17:34:27.814Z,0.10
2023-04-14T17:36:59.521Z,0.10
2023-04-14T17:39:29.736Z,0.10
2023-04-14T17:42:01.297Z,0.10
2023-04-14T17:44:34.690Z,0.10
2023-04-14T17:47:13.581Z,0.10
2023-04-14T17:49:45.014Z,0.10
2023-04-14T17:52:15.461Z,0.20
2023-04-14T17:54:47.375Z,0.10
2023-04-14T17:57:17.972Z,0.10
2023-04-14T17:59:48.305Z,0.10
2023-04-14T18:02:20.538Z,0.10
2023-04-14T18:04:51.157Z,0.10
2023-04-14T18:07:21.475Z,0.10
2023-04-14T18:09:51.979Z,0.10
2023-04-14T18:12:23.395Z,0.20
2023-04-14T18:14:53.935Z,0.17
2023-04-14T18:17:26.813Z,0.10
2023-04-14T18:22:45.675Z,0.10
2023-04-14T18:25:15.911Z,0.10
2023-04-14T18:30:19.434Z,0.10
2023-04-14T18:32:51.659Z,0.10
2023-04-14T18:35:21.944Z,0.10
2023-04-14T18:37:52.415Z,0.10
2023-04-14T18:40:24.086Z,0.10
2023-04-14T18:42:55.396Z,0.10
2023-04-14T18:45:25.580Z,0.10
2023-04-14T18:47:57.704Z,0.10
2023-04-14T18:50:28.286Z,0.10
2023-04-14T18:52:59.314Z,0.10
2023-04-14T18:55:37.188Z,0.10
2023-04-14T18:58:15.898Z,0.03
2023-04-14T19:00:48.302Z,0.10
2023-04-14T19:03:20.674Z,0.00
2023-04-14T19:05:52.002Z,0.10
2023-04-14T19:08:22.337Z,0.10
2023-04-14T19:10:52.596Z,0.10
2023-04-14T19:13:22.969Z,0.10
2023-04-14T19:15:53.240Z,0.10
2023-04-14T19:18:26.331Z,0.10
2023-04-14T19:20:57.787Z,0.10
2023-04-14T19:23:28.254Z,0.10
2023-04-14T19:25:59.105Z,0.10
2023-04-14T19:28:29.655Z,0.10
2023-04-14T19:31:00.811Z,0.10
2023-04-14T19:33:32.778Z,0.10
2023-04-14T19:36:03.234Z,0.20
2023-04-14T19:38:33.981Z,0.20
2023-04-14T19:41:04.390Z,0.10
2023-04-14T19:43:35.054Z,0.20
2023-04-14T19:46:05.715Z,0.10
2023-04-14T19:48:38.347Z,0.20
2023-04-14T19:51:08.848Z,0.20
2023-04-14T19:53:39.655Z,0.20
2023-04-14T19:56:10.078Z,0.10
2023-04-14T19:58:40.370Z,0.20
2023-04-14T20:01:11.863Z,0.10
2023-04-14T20:04:09.863Z,0.20
2023-04-14T20:06:34.927Z,0.17
2023-04-14T20:09:05.394Z,0.20
2023-04-14T20:11:35.916Z,0.10
2023-04-14T20:14:06.432Z,0.10
2023-04-14T20:16:36.978Z,0.20
2023-04-14T20:19:08.983Z,0.20
2023-04-14T20:21:39.600Z,0.20
2023-04-14T20:24:10.157Z,0.20
2023-04-14T20:26:43.270Z,0.20
2023-04-14T20:29:14.002Z,0.10
2023-04-14T20:31:45.133Z,0.20
2023-04-14T20:34:17.473Z,0.10
2023-04-14T20:36:47.991Z,0.20
2023-04-14T20:39:18.690Z,0.20
2023-04-14T20:41:49.265Z,0.10
2023-04-14T20:44:19.576Z,0.20
2023-04-14T20:46:51.095Z,0.13
2023-04-14T20:49:23.541Z,0.10
2023-04-14T20:51:53.833Z,0.10
2023-04-14T20:54:24.989Z,0.10
2023-04-14T20:56:55.297Z,0.10
2023-04-14T20:59:25.750Z,0.10
2023-04-14T21:01:56.497Z,0.10
2023-04-14T21:04:28.821Z,0.20
2023-04-14T21:06:59.154Z,0.17
2023-04-14T21:09:29.492Z,0.20
2023-04-14T21:12:14.276Z,0.10
2023-04-14T21:15:40.971Z,0.20
2023-04-14T21:17:37.234Z,0.20
2023-04-14T21:20:10.418Z,0.20
2023-04-14T21:22:40.736Z,0.20
2023-04-14T21:25:11.689Z,0.10
2023-04-14T21:27:42.863Z,0.10
2023-04-14T21:30:13.580Z,0.10
2023-04-14T21:32:44.347Z,0.10
2023-04-14T21:35:18.221Z,0.20
2023-04-14T21:37:48.459Z,0.10
2023-04-14T21:40:18.799Z,0.20
2023-04-14T21:42:49.023Z,0.20
2023-04-14T21:45:19.724Z,0.20
2023-04-14T21:47:50.113Z,0.20
2023-04-14T21:50:22.308Z,0.20
2023-04-14T21:52:53.103Z,0.10
2023-04-14T21:55:24.471Z,0.13
2023-04-14T21:57:55.162Z,0.20
2023-04-14T22:00:27.364Z,0.13
2023-04-14T22:02:57.672Z,0.10
2023-04-14T22:05:30.128Z,0.20
2023-04-14T22:08:00.490Z,0.10
2023-04-14T22:10:33.897Z,0.20
2023-04-14T22:13:04.492Z,0.10
2023-04-14T22:15:34.793Z,0.20
2023-04-14T22:18:05.635Z,0.20
2023-04-14T22:20:37.588Z,0.20
2023-04-14T22:23:08.000Z,0.20
2023-04-14T22:25:38.673Z,0.27
2023-04-14T22:28:09.489Z,0.20
2023-04-14T22:30:39.731Z,0.20
2023-04-14T22:33:10.528Z,0.20
2023-04-14T22:35:42.448Z,0.17
2023-04-14T22:38:13.557Z,0.20
2023-04-14T22:40:43.906Z,0.20
2023-04-14T22:43:14.361Z,0.20
2023-04-14T22:45:44.731Z,0.20
2023-04-14T22:48:15.592Z,0.20
2023-04-14T22:50:47.896Z,0.20
2023-04-14T22:53:18.365Z,0.20
2023-04-14T22:55:49.928Z,0.20
2023-04-14T22:58:21.033Z,0.30
2023-04-14T23:00:51.429Z,0.20
2023-04-14T23:03:22.147Z,0.20
2023-04-14T23:05:55.770Z,0.20
2023-04-14T23:08:26.050Z,0.20
2023-04-14T23:10:56.877Z,0.20
2023-04-14T23:13:27.277Z,0.20
2023-04-14T23:15:57.646Z,0.20
2023-04-14T23:18:28.797Z,0.20
2023-04-14T23:21:00.891Z,0.20
2023-04-14T23:23:31.174Z,0.20
2023-04-14T23:26:01.607Z,0.20
2023-04-14T23:28:32.515Z,0.20
2023-04-14T23:31:03.135Z,0.20
2023-04-14T23:33:33.661Z,0.20
2023-04-14T23:36:05.794Z,0.20
2023-04-14T23:38:36.279Z,0.20
2023-04-14T23:41:07.051Z,0.20
2023-04-14T23:43:37.375Z,0.20
2023-04-14T23:46:08.082Z,0.30
2023-04-14T23:48:38.583Z,0.20
2023-04-14T23:51:16.599Z,0.30
2023-04-14T23:53:50.722Z,0.30
2023-04-14T23:56:23.624Z,0.27
2023-04-14T23:58:54.685Z,0.30
